Weather reports worldwide

Advertisment
Lorca, Spain (8426): temperature & dewpoint: 06.12.2018 00:00:00 - 12.12.2018 00:00:00 (CET)Lorca, Spain (8426): wind speed & gusts: 06.12.2018 00:00:00 - 12.12.2018 00:00:00 (CET)Lorca, Spain (8426): wind direction: 06.12.2018 00:00:00 - 12.12.2018 00:00:00 (CET)Lorca, Spain (8426): precipitation: 06.12.2018 00:00:00 - 12.12.2018 00:00:00 (CET)
Date & Time tt [°C] td [°C] ff [km/h] ff [kn] fx [km/h] fx [kn] dd rr [mm]
12.12.2018 00:00:00 8,3 7,6 1 1 6 3 SSW 0,0
11.12.2018 23:00:00 8,7 7,4 0 0 3 2 SSE 0,0
11.12.2018 22:00:00 9,0 7,6 0 0 5 3 N 0,0
11.12.2018 21:00:00 9,9 8,1 0 0 2 1 WSW 0,0
11.12.2018 20:00:00 10,9 9,0 0 0 7 4 NW 0,0
11.12.2018 19:00:00 11,9 9,4 2 1 8 5 W -
11.12.2018 18:00:00 13,0 9,8 4 2 13 7 SW 0,0
11.12.2018 17:00:00 15,1 9,4 5 3 13 7 SSW 0,0
11.12.2018 16:00:00 16,7 9,2 6 3 14 7 SSW 0,0
11.12.2018 15:00:00 17,1 9,0 6 3 13 7 S 0,0
11.12.2018 14:00:00 16,9 7,3 8 5 16 8 SSW 0,0
11.12.2018 13:00:00 15,7 7,0 7 4 13 7 SW -
11.12.2018 12:00:00 13,9 7,7 3 2 8 4 SW 0,0
11.12.2018 11:00:00 9,9 7,6 1 1 5 3 W 0,0
11.12.2018 10:00:00 7,1 6,5 1 0 4 2 S 0,0
11.12.2018 09:00:00 6,7 5,9 0 0 2 1 SE 0,0
11.12.2018 08:00:00 6,9 6,1 0 0 2 1 NW 0,0
11.12.2018 07:00:00 6,6 4,6 1 0 4 2 NE -
11.12.2018 06:00:00 7,2 4,5 0 0 4 2 NNE 0,0
11.12.2018 05:00:00 7,8 5,1 1 0 9 5 NNE 0,0
11.12.2018 04:00:00 8,3 5,5 2 1 8 4 N 0,0
11.12.2018 03:00:00 9,2 7,7 4 2 14 8 NNW 0,0
11.12.2018 02:00:00 9,7 8,8 1 1 7 4 NW 0,0
11.12.2018 01:00:00 8,6 7,7 2 1 14 8 W -
11.12.2018 00:00:00 10,3 8,3 4 2 14 7 NNW 0,0
10.12.2018 23:00:00 10,1 8,9 2 1 7 4 N 0,0
10.12.2018 22:00:00 8,9 7,7 0 0 4 2 WNW 0,0
10.12.2018 21:00:00 10,0 8,4 0 0 3 1 SSE 0,0
10.12.2018 20:00:00 11,5 9,8 1 0 7 4 S 0,0
10.12.2018 19:00:00 13,0 11,1 2 1 8 4 WSW -
10.12.2018 18:00:00 14,5 10,9 6 3 13 7 SW 0,0
10.12.2018 17:00:00 16,8 10,4 2 1 10 5 ENE 0,0
10.12.2018 16:00:00 18,0 10,6 3 2 11 6 ENE 0,0
10.12.2018 15:00:00 18,5 9,6 4 2 14 8 ENE 0,0
10.12.2018 14:00:00 17,8 10,2 4 2 12 6 ENE 0,0
10.12.2018 13:00:00 17,4 9,6 4 2 17 9 ENE -
10.12.2018 12:00:00 15,8 5,6 3 2 11 6 ENE 0,0
10.12.2018 11:00:00 14,5 2,5 3 2 11 6 ENE 0,0
10.12.2018 10:00:00 11,1 0,9 4 2 13 7 NNE 0,0
10.12.2018 09:00:00 8,4 0,2 3 1 10 5 NNW 0,0
10.12.2018 08:00:00 7,8 0,0 3 1 10 6 NNW 0,0
10.12.2018 07:00:00 7,2 0,4 3 2 9 5 SE -
10.12.2018 06:00:00 7,9 1,1 1 1 8 4 SSW 0,0
10.12.2018 05:00:00 10,3 0,9 3 2 19 10 SSE 0,0
10.12.2018 04:00:00 14,6 2,1 5 3 18 10 NW 0,0
10.12.2018 03:00:00 13,2 2,7 1 1 27 15 W 0,0
10.12.2018 02:00:00 16,0 4,6 16 9 28 15 NW 0,0
10.12.2018 01:00:00 14,3 6,1 6 3 22 12 NNW -
10.12.2018 00:00:00 12,8 5,6 6 4 11 6 N 0,0
09.12.2018 23:00:00 10,9 7,4 2 1 8 4 NNW 0,0
09.12.2018 22:00:00 11,1 7,6 1 1 9 5 W 0,0
09.12.2018 21:00:00 13,4 7,0 4 2 10 5 NNE 0,0
09.12.2018 20:00:00 12,1 8,0 2 1 4 2 NE 0,0
09.12.2018 19:00:00 13,4 8,9 0 0 3 2 ESE -
09.12.2018 18:00:00 16,2 8,9 1 0 6 4 NE 0,0
09.12.2018 17:00:00 21,4 8,0 3 1 7 4 S 0,0
09.12.2018 16:00:00 22,4 6,2 3 2 8 4 S 0,0
09.12.2018 15:00:00 22,3 5,6 3 1 9 5 SE 0,0
09.12.2018 14:00:00 21,4 5,8 4 2 11 6 WSW 0,0
09.12.2018 13:00:00 19,4 5,1 4 2 7 4 SSW -
09.12.2018 12:00:00 16,3 8,3 3 2 6 3 SW 0,0
09.12.2018 11:00:00 12,8 9,0 3 2 5 3 S 0,0
09.12.2018 10:00:00 8,1 7,0 0 0 4 2 SSW 0,0
09.12.2018 09:00:00 5,8 5,1 2 1 5 3 SSW 0,0
09.12.2018 08:00:00 4,3 3,8 1 0 6 3 SSW 0,0
09.12.2018 07:00:00 4,7 4,1 0 0 5 3 NNE -
09.12.2018 06:00:00 4,8 4,3 0 0 3 2 SSW 0,0
09.12.2018 05:00:00 5,2 4,6 1 1 5 3 SSE 0,0
09.12.2018 04:00:00 5,6 5,0 1 1 7 4 NNW 0,0
09.12.2018 03:00:00 6,8 5,6 0 0 8 4 NNE 0,0
09.12.2018 02:00:00 6,9 6,1 3 1 10 5 WNW 0,0
09.12.2018 01:00:00 8,0 7,0 3 2 8 4 N -
09.12.2018 00:00:00 8,4 7,0 2 1 9 5 W 0,0
08.12.2018 23:00:00 9,6 8,0 2 1 8 4 N 0,0
08.12.2018 22:00:00 10,4 9,2 3 2 5 3 N 0,0
08.12.2018 21:00:00 11,6 10,3 3 2 13 7 NNE 0,0
08.12.2018 20:00:00 12,0 10,5 6 3 16 9 NE 0,0
08.12.2018 19:00:00 12,4 9,6 3 2 8 5 ENE -
08.12.2018 18:00:00 14,2 7,0 0 0 3 2 N 0,0
08.12.2018 17:00:00 17,0 7,6 1 0 12 7 E 0,0
08.12.2018 16:00:00 18,2 8,5 4 2 15 8 E 0,0
08.12.2018 15:00:00 18,1 8,4 3 2 12 6 ENE 0,0
08.12.2018 14:00:00 18,3 8,5 2 1 12 7 E 0,0
08.12.2018 13:00:00 18,5 8,4 3 2 13 7 E -
08.12.2018 12:00:00 17,0 7,3 4 2 14 8 ENE 0,0
08.12.2018 11:00:00 14,2 6,5 1 1 6 3 WSW 0,0
08.12.2018 10:00:00 9,3 4,1 1 0 6 3 W 0,0
08.12.2018 09:00:00 7,0 2,5 1 1 17 9 SW 0,0
08.12.2018 08:00:00 11,3 3,8 6 3 16 9 NW 0,0
08.12.2018 07:00:00 9,9 2,7 4 2 12 6 NNW -
08.12.2018 06:00:00 8,0 2,9 1 1 8 4 N 0,0
08.12.2018 05:00:00 10,2 2,3 5 3 15 8 NW 0,0
08.12.2018 04:00:00 12,5 2,9 4 2 16 8 NW 0,0
08.12.2018 03:00:00 12,0 2,7 6 3 14 7 N 0,0
08.12.2018 02:00:00 9,5 4,5 0 0 16 9 N 0,0
08.12.2018 01:00:00 9,0 5,6 1 1 10 5 N -
08.12.2018 00:00:00 9,9 5,5 4 2 17 9 WNW 0,0
07.12.2018 23:00:00 8,3 7,6 2 1 8 4 SW 0,0
07.12.2018 22:00:00 9,5 8,8 2 1 10 5 NW 0,0
07.12.2018 21:00:00 10,6 9,7 1 1 5 3 S 0,0
07.12.2018 20:00:00 11,6 10,3 3 2 6 3 WSW 0,0
07.12.2018 19:00:00 12,6 10,6 1 1 12 7 SW -
07.12.2018 18:00:00 14,4 10,8 6 3 12 7 SW 0,0
07.12.2018 17:00:00 17,2 9,6 6 4 14 7 SSW 0,0
07.12.2018 16:00:00 18,5 10,0 7 4 16 9 SSW 0,0
07.12.2018 15:00:00 19,4 9,6 5 3 15 8 S 0,0
07.12.2018 14:00:00 19,5 9,7 6 3 13 7 SW 0,0
07.12.2018 13:00:00 18,6 8,0 4 2 8 5 S -
07.12.2018 12:00:00 16,7 7,8 2 1 6 3 SW 0,0
07.12.2018 11:00:00 13,4 8,4 2 1 6 3 SW 0,0
07.12.2018 10:00:00 9,0 7,3 0 0 4 2 S 0,0
07.12.2018 09:00:00 5,4 4,6 1 0 4 2 NNE 0,0
07.12.2018 08:00:00 5,6 4,8 0 0 4 2 NW 0,0
07.12.2018 07:00:00 5,4 4,5 0 0 3 2 W -
07.12.2018 06:00:00 5,6 4,5 1 0 4 2 SSE 0,0
07.12.2018 05:00:00 7,2 5,1 1 0 13 7 NW 0,0
07.12.2018 04:00:00 7,7 6,1 5 3 13 7 NNW 0,0
07.12.2018 03:00:00 7,0 5,6 0 0 5 3 SE 0,0
07.12.2018 02:00:00 8,2 6,5 3 1 10 5 NNW 0,0
07.12.2018 01:00:00 8,3 6,7 1 0 4 2 WSW -
07.12.2018 00:00:00 9,5 7,1 2 1 6 4 N 0,0
06.12.2018 23:00:00 9,7 7,8 0 0 6 3 N 0,0
06.12.2018 22:00:00 10,2 7,6 0 0 4 2 N 0,0
06.12.2018 21:00:00 11,8 8,8 3 2 6 3 NNE 0,0
06.12.2018 20:00:00 12,7 8,9 0 0 11 6 NE 0,0
06.12.2018 19:00:00 14,4 9,7 3 2 18 10 ENE -
06.12.2018 18:00:00 16,0 9,4 12 7 21 11 NE 0,0
06.12.2018 17:00:00 19,3 8,9 7 4 17 9 ENE 0,0
06.12.2018 16:00:00 22,1 9,6 4 2 16 9 ENE 0,0
06.12.2018 15:00:00 22,5 8,9 3 2 11 6 ENE 0,0
06.12.2018 14:00:00 22,6 8,3 1 1 8 5 NE 0,0
06.12.2018 13:00:00 21,4 8,0 4 2 8 5 SW -
06.12.2018 12:00:00 19,7 8,4 1 1 6 4 WSW 0,0
06.12.2018 11:00:00 16,0 8,0 2 1 8 5 SW 0,0
06.12.2018 10:00:00 11,9 6,5 1 1 13 7 SW 0,0
06.12.2018 09:00:00 12,2 5,6 2 1 13 7 NNW 0,0
06.12.2018 08:00:00 9,1 5,1 2 1 15 8 W 0,0
06.12.2018 07:00:00 8,2 5,5 3 2 9 5 W -
06.12.2018 06:00:00 9,2 4,8 1 1 13 7 SSE 0,0
06.12.2018 05:00:00 13,0 5,9 7 4 16 8 WNW 0,0
06.12.2018 04:00:00 9,7 7,1 1 0 11 6 S 0,0
06.12.2018 03:00:00 9,1 7,6 3 2 8 5 WNW 0,0
06.12.2018 02:00:00 9,0 7,6 0 0 7 4 SW 0,0
06.12.2018 01:00:00 9,5 7,6 1 1 8 5 W -
06.12.2018 00:00:00 10,0 8,1 2 1 13 7 W 0,0

tt = temperature
td = dewpoint
ff = wind speed
fx = gusts
dd = wind direction
rr = precipitation

Next stations